Sims, North Carolina
Current Conditions -  °F | °C
As of 2:53 PM on Thursday 30 Oct 2014 (Local Time) from KRWI Reporting Station
Few Clouds Few Clouds  
Wind Chill: 67°   Ceiling: Unl
Heat Index: 67°   Visibility: 10mi
Dew Point: 45°   Wind: 3mph
Humidity: 45%   Direction: 100°E
Pressure: 29.98"   Gusts: NA
Location:  35.76°N, 78.06°W
Report Text: KRWI 301853Z AUTO 10003KT 10SM FEW050 19/07 A2998 RMK AO2 SLP152 T01940072
Loading
Personal Weather Stations






























Interactive Weather Map
Tropical Storm Tracking
New forecast layout! Learn more

10-Day Weather Forecast

Advertisements
Track Severe Weather on mobile